TAF LEGT
LEGT 280500Z 2806/2906 29010KT CAVOK TX09/2814Z TN01/2806Z PROB40 TEMPO 2812/2817 29015G25KT TEMPO 2817/2824 25015G25KT=
METAR LEGT
LEGT 280730Z 30014KT CAVOK 04/M03 Q1015=
LEGT 280700Z 31014KT CAVOK 04/M03 Q1015=
LEGT 280630Z 30011G24KT 260V340 CAVOK 04/M03 Q1014=
LEGT 280600Z 31016KT CAVOK 04/M03 Q1014=
LEGT 280530Z 31013G25KT 270V340 CAVOK 04/M03 Q1014=
WC LEGT
WS LEGT
WV LEGT